sensor_id;sensor_type;location;lat;lon;timestamp;temperature;humidity
14401;DHT22;7285;50.894;5.462;2023-04-24T00:00:29;9.40;99.90
14401;DHT22;7285;50.894;5.462;2023-04-24T00:02:56;9.40;99.90
14401;DHT22;7285;50.894;5.462;2023-04-24T00:05:24;9.40;99.90
14401;DHT22;7285;50.894;5.462;2023-04-24T00:07:53;9.30;99.90
14401;DHT22;7285;50.894;5.462;2023-04-24T00:10:20;9.30;99.90
14401;DHT22;7285;50.894;5.462;2023-04-24T00:12:47;9.40;99.90
14401;DHT22;7285;50.894;5.462;2023-04-24T00:15:14;9.30;99.90
14401;DHT22;7285;50.894;5.462;2023-04-24T00:17:41;9.40;99.90
14401;DHT22;7285;50.894;5.462;2023-04-24T00:20:09;9.30;99.90
14401;DHT22;7285;50.894;5.462;2023-04-24T00:22:36;9.30;99.90
14401;DHT22;7285;50.894;5.462;2023-04-24T00:25:05;9.30;99.90
14401;DHT22;7285;50.894;5.462;2023-04-24T00:27:32;9.30;99.90
14401;DHT22;7285;50.894;5.462;2023-04-24T00:30:01;9.30;99.90
14401;DHT22;7285;50.894;5.462;2023-04-24T00:32:28;9.30;99.90
14401;DHT22;7285;50.894;5.462;2023-04-24T00:34:55;9.30;1.00
14401;DHT22;7285;50.894;5.462;2023-04-24T00:37:22;9.30;99.90
14401;DHT22;7285;50.894;5.462;2023-04-24T00:39:48;9.30;99.90
14401;DHT22;7285;50.894;5.462;2023-04-24T00:42:17;9.30;99.90
14401;DHT22;7285;50.894;5.462;2023-04-24T00:44:44;9.30;99.90
14401;DHT22;7285;50.894;5.462;2023-04-24T00:47:11;9.30;99.90
14401;DHT22;7285;50.894;5.462;2023-04-24T00:49:39;9.30;99.90
14401;DHT22;7285;50.894;5.462;2023-04-24T00:52:06;9.30;99.90
14401;DHT22;7285;50.894;5.462;2023-04-24T00:54:34;9.30;99.90
14401;DHT22;7285;50.894;5.462;2023-04-24T00:57:02;9.30;1.00
14401;DHT22;7285;50.894;5.462;2023-04-24T00:59:30;9.30;1.00
14401;DHT22;7285;50.894;5.462;2023-04-24T01:01:58;9.30;1.00
14401;DHT22;7285;50.894;5.462;2023-04-24T01:04:25;9.30;1.00
14401;DHT22;7285;50.894;5.462;2023-04-24T01:06:53;9.20;1.00
14401;DHT22;7285;50.894;5.462;2023-04-24T01:09:22;9.20;1.00
14401;DHT22;7285;50.894;5.462;2023-04-24T01:11:50;9.20;1.00
14401;DHT22;7285;50.894;5.462;2023-04-24T01:14:17;9.20;1.00
14401;DHT22;7285;50.894;5.462;2023-04-24T01:16:45;9.20;1.00
14401;DHT22;7285;50.894;5.462;2023-04-24T01:19:13;9.20;1.00
14401;DHT22;7285;50.894;5.462;2023-04-24T01:21:42;9.20;1.00
14401;DHT22;7285;50.894;5.462;2023-04-24T01:24:11;9.20;1.00
14401;DHT22;7285;50.894;5.462;2023-04-24T01:26:38;9.20;99.90
14401;DHT22;7285;50.894;5.462;2023-04-24T01:29:05;9.20;99.90
14401;DHT22;7285;50.894;5.462;2023-04-24T01:31:33;9.20;1.00
14401;DHT22;7285;50.894;5.462;2023-04-24T01:34:01;9.20;1.00
14401;DHT22;7285;50.894;5.462;2023-04-24T01:36:29;9.20;1.00
14401;DHT22;7285;50.894;5.462;2023-04-24T01:38:56;9.20;1.00
14401;DHT22;7285;50.894;5.462;2023-04-24T01:41:25;9.20;1.00
14401;DHT22;7285;50.894;5.462;2023-04-24T01:43:52;9.20;1.00
14401;DHT22;7285;50.894;5.462;2023-04-24T01:46:20;9.20;1.00
14401;DHT22;7285;50.894;5.462;2023-04-24T01:48:48;9.20;99.90
14401;DHT22;7285;50.894;5.462;2023-04-24T01:51:15;9.20;1.00
14401;DHT22;7285;50.894;5.462;2023-04-24T01:53:41;9.20;99.90
14401;DHT22;7285;50.894;5.462;2023-04-24T01:56:09;9.20;99.90
14401;DHT22;7285;50.894;5.462;2023-04-24T01:58:37;9.20;1.00
14401;DHT22;7285;50.894;5.462;2023-04-24T02:01:06;9.20;1.00
14401;DHT22;7285;50.894;5.462;2023-04-24T02:03:33;9.20;1.00
14401;DHT22;7285;50.894;5.462;2023-04-24T02:06:00;9.20;1.00
14401;DHT22;7285;50.894;5.462;2023-04-24T02:08:27;9.10;1.00
14401;DHT22;7285;50.894;5.462;2023-04-24T02:10:54;9.00;99.90
14401;DHT22;7285;50.894;5.462;2023-04-24T02:13:21;9.00;1.00
14401;DHT22;7285;50.894;5.462;2023-04-24T02:15:49;9.00;1.00
14401;DHT22;7285;50.894;5.462;2023-04-24T02:18:16;8.90;99.90
14401;DHT22;7285;50.894;5.462;2023-04-24T02:20:43;8.90;99.90
14401;DHT22;7285;50.894;5.462;2023-04-24T02:23:10;8.90;99.90
14401;DHT22;7285;50.894;5.462;2023-04-24T02:25:37;8.90;99.90
14401;DHT22;7285;50.894;5.462;2023-04-24T02:28:04;8.90;99.90
14401;DHT22;7285;50.894;5.462;2023-04-24T02:30:30;8.80;99.90
14401;DHT22;7285;50.894;5.462;2023-04-24T02:32:59;8.90;1.00
14401;DHT22;7285;50.894;5.462;2023-04-24T02:35:26;8.90;1.00
14401;DHT22;7285;50.894;5.462;2023-04-24T02:37:53;8.90;1.00
14401;DHT22;7285;50.894;5.462;2023-04-24T02:40:19;8.90;1.00
14401;DHT22;7285;50.894;5.462;2023-04-24T02:42:46;8.80;1.00
14401;DHT22;7285;50.894;5.462;2023-04-24T02:45:13;8.90;99.90
14401;DHT22;7285;50.894;5.462;2023-04-24T02:47:41;8.80;99.90
14401;DHT22;7285;50.894;5.462;2023-04-24T02:50:09;8.90;1.00
14401;DHT22;7285;50.894;5.462;2023-04-24T02:52:36;8.80;1.00
14401;DHT22;7285;50.894;5.462;2023-04-24T02:55:04;8.70;1.00
14401;DHT22;7285;50.894;5.462;2023-04-24T02:57:31;8.70;1.00
14401;DHT22;7285;50.894;5.462;2023-04-24T02:59:58;8.70;1.00
14401;DHT22;7285;50.894;5.462;2023-04-24T03:02:25;8.60;99.90
14401;DHT22;7285;50.894;5.462;2023-04-24T03:04:52;8.60;1.00
14401;DHT22;7285;50.894;5.462;2023-04-24T03:07:20;8.50;1.00
14401;DHT22;7285;50.894;5.462;2023-04-24T03:09:47;8.50;1.00
14401;DHT22;7285;50.894;5.462;2023-04-24T03:12:14;8.40;1.00
14401;DHT22;7285;50.894;5.462;2023-04-24T03:14:42;8.40;1.00
14401;DHT22;7285;50.894;5.462;2023-04-24T03:17:09;8.40;99.90
14401;DHT22;7285;50.894;5.462;2023-04-24T03:19:36;8.40;1.00
14401;DHT22;7285;50.894;5.462;2023-04-24T03:22:03;8.40;99.90
14401;DHT22;7285;50.894;5.462;2023-04-24T03:24:31;8.40;99.90
14401;DHT22;7285;50.894;5.462;2023-04-24T03:26:58;8.40;99.90
14401;DHT22;7285;50.894;5.462;2023-04-24T03:29:25;8.30;1.00
14401;DHT22;7285;50.894;5.462;2023-04-24T03:31:52;8.30;1.00
14401;DHT22;7285;50.894;5.462;2023-04-24T03:34:19;8.40;1.00
14401;DHT22;7285;50.894;5.462;2023-04-24T03:36:46;8.40;99.90
14401;DHT22;7285;50.894;5.462;2023-04-24T03:39:16;8.40;99.90
14401;DHT22;7285;50.894;5.462;2023-04-24T03:41:44;8.30;96.00
14401;DHT22;7285;50.894;5.462;2023-04-24T03:44:11;8.30;99.90
14401;DHT22;7285;50.894;5.462;2023-04-24T03:46:38;8.30;99.70
14401;DHT22;7285;50.894;5.462;2023-04-24T03:49:05;8.30;55.40
14401;DHT22;7285;50.894;5.462;2023-04-24T03:51:32;8.30;52.90
14401;DHT22;7285;50.894;5.462;2023-04-24T03:53:59;8.30;1.00
14401;DHT22;7285;50.894;5.462;2023-04-24T03:56:26;8.40;1.00
14401;DHT22;7285;50.894;5.462;2023-04-24T03:58:54;8.40;99.90
14401;DHT22;7285;50.894;5.462;2023-04-24T04:01:21;8.40;99.90
14401;DHT22;7285;50.894;5.462;2023-04-24T04:03:49;8.40;1.00
14401;DHT22;7285;50.894;5.462;2023-04-24T04:06:16;8.40;99.90
14401;DHT22;7285;50.894;5.462;2023-04-24T04:08:44;8.40;99.90
14401;DHT22;7285;50.894;5.462;2023-04-24T04:11:11;8.40;99.90
14401;DHT22;7285;50.894;5.462;2023-04-24T04:13:38;8.30;1.00
14401;DHT22;7285;50.894;5.462;2023-04-24T04:16:08;8.30;99.90
14401;DHT22;7285;50.894;5.462;2023-04-24T04:18:35;8.30;1.00
14401;DHT22;7285;50.894;5.462;2023-04-24T04:21:03;8.30;1.00
14401;DHT22;7285;50.894;5.462;2023-04-24T04:23:30;8.30;1.00
14401;DHT22;7285;50.894;5.462;2023-04-24T04:25:57;8.20;1.00
14401;DHT22;7285;50.894;5.462;2023-04-24T04:28:24;8.20;1.00
14401;DHT22;7285;50.894;5.462;2023-04-24T04:30:51;8.20;1.00
14401;DHT22;7285;50.894;5.462;2023-04-24T04:33:20;8.20;1.00
14401;DHT22;7285;50.894;5.462;2023-04-24T04:35:47;8.30;99.90
14401;DHT22;7285;50.894;5.462;2023-04-24T04:38:15;8.20;1.00
14401;DHT22;7285;50.894;5.462;2023-04-24T04:40:43;8.20;1.00
14401;DHT22;7285;50.894;5.462;2023-04-24T04:43:10;8.20;99.90
14401;DHT22;7285;50.894;5.462;2023-04-24T04:45:39;8.10;1.00
14401;DHT22;7285;50.894;5.462;2023-04-24T04:48:07;8.00;99.90
14401;DHT22;7285;50.894;5.462;2023-04-24T04:50:36;8.00;1.00
14401;DHT22;7285;50.894;5.462;2023-04-24T04:53:03;8.00;1.00
14401;DHT22;7285;50.894;5.462;2023-04-24T04:55:30;8.00;99.90
14401;DHT22;7285;50.894;5.462;2023-04-24T04:57:57;7.90;99.90
14401;DHT22;7285;50.894;5.462;2023-04-24T05:00:26;7.90;99.90
14401;DHT22;7285;50.894;5.462;2023-04-24T05:02:54;7.90;99.90
14401;DHT22;7285;50.894;5.462;2023-04-24T05:05:21;8.00;1.00
14401;DHT22;7285;50.894;5.462;2023-04-24T05:07:49;7.90;1.00
14401;DHT22;7285;50.894;5.462;2023-04-24T05:10:16;7.90;1.00
14401;DHT22;7285;50.894;5.462;2023-04-24T05:12:43;7.90;1.00
14401;DHT22;7285;50.894;5.462;2023-04-24T05:15:10;7.90;1.00
14401;DHT22;7285;50.894;5.462;2023-04-24T05:17:37;7.90;1.00
14401;DHT22;7285;50.894;5.462;2023-04-24T05:20:07;7.90;1.00
14401;DHT22;7285;50.894;5.462;2023-04-24T05:22:35;7.90;1.00
14401;DHT22;7285;50.894;5.462;2023-04-24T05:25:04;7.90;1.00
14401;DHT22;7285;50.894;5.462;2023-04-24T05:27:31;7.90;1.00
14401;DHT22;7285;50.894;5.462;2023-04-24T05:29:58;7.90;1.00
14401;DHT22;7285;50.894;5.462;2023-04-24T05:32:25;8.00;1.00
14401;DHT22;7285;50.894;5.462;2023-04-24T05:34:52;8.00;1.00
14401;DHT22;7285;50.894;5.462;2023-04-24T05:37:19;7.90;1.00
14401;DHT22;7285;50.894;5.462;2023-04-24T05:39:46;7.90;1.00
14401;DHT22;7285;50.894;5.462;2023-04-24T05:42:14;8.00;1.00
14401;DHT22;7285;50.894;5.462;2023-04-24T05:44:41;7.90;1.00
14401;DHT22;7285;50.894;5.462;2023-04-24T05:47:08;7.90;1.00
14401;DHT22;7285;50.894;5.462;2023-04-24T05:49:35;8.00;1.00
14401;DHT22;7285;50.894;5.462;2023-04-24T05:52:02;8.00;1.00
14401;DHT22;7285;50.894;5.462;2023-04-24T05:54:31;7.90;1.00
14401;DHT22;7285;50.894;5.462;2023-04-24T05:56:58;7.90;1.00
14401;DHT22;7285;50.894;5.462;2023-04-24T05:59:26;7.90;1.00
14401;DHT22;7285;50.894;5.462;2023-04-24T06:01:53;7.90;1.00
14401;DHT22;7285;50.894;5.462;2023-04-24T06:04:20;7.90;1.00
14401;DHT22;7285;50.894;5.462;2023-04-24T06:06:47;7.90;1.00
14401;DHT22;7285;50.894;5.462;2023-04-24T06:09:16;7.80;1.00
14401;DHT22;7285;50.894;5.462;2023-04-24T06:11:43;7.80;1.00
14401;DHT22;7285;50.894;5.462;2023-04-24T06:14:10;7.80;1.00
14401;DHT22;7285;50.894;5.462;2023-04-24T06:16:41;7.80;1.00
14401;DHT22;7285;50.894;5.462;2023-04-24T06:19:08;7.80;1.00
14401;DHT22;7285;50.894;5.462;2023-04-24T06:21:35;7.70;1.00
14401;DHT22;7285;50.894;5.462;2023-04-24T06:24:03;7.70;1.00
14401;DHT22;7285;50.894;5.462;2023-04-24T06:26:30;7.70;1.00
14401;DHT22;7285;50.894;5.462;2023-04-24T06:28:57;7.70;1.00
14401;DHT22;7285;50.894;5.462;2023-04-24T06:31:25;7.70;1.00
14401;DHT22;7285;50.894;5.462;2023-04-24T06:33:54;7.70;1.00
14401;DHT22;7285;50.894;5.462;2023-04-24T06:36:21;7.70;1.00
14401;DHT22;7285;50.894;5.462;2023-04-24T06:38:47;7.70;1.00
14401;DHT22;7285;50.894;5.462;2023-04-24T06:41:15;7.70;1.00
14401;DHT22;7285;50.894;5.462;2023-04-24T06:43:42;7.60;1.00
14401;DHT22;7285;50.894;5.462;2023-04-24T06:46:09;7.60;1.00
14401;DHT22;7285;50.894;5.462;2023-04-24T06:48:36;7.60;1.00
14401;DHT22;7285;50.894;5.462;2023-04-24T06:51:04;7.60;1.00
14401;DHT22;7285;50.894;5.462;2023-04-24T06:53:31;7.60;1.00
14401;DHT22;7285;50.894;5.462;2023-04-24T06:55:58;7.60;1.00
14401;DHT22;7285;50.894;5.462;2023-04-24T06:58:26;7.60;1.00
14401;DHT22;7285;50.894;5.462;2023-04-24T07:00:53;7.60;1.00
14401;DHT22;7285;50.894;5.462;2023-04-24T07:03:20;7.60;1.00
14401;DHT22;7285;50.894;5.462;2023-04-24T07:05:47;7.60;1.00
14401;DHT22;7285;50.894;5.462;2023-04-24T07:08:16;7.60;1.00
14401;DHT22;7285;50.894;5.462;2023-04-24T07:10:44;7.60;1.00
14401;DHT22;7285;50.894;5.462;2023-04-24T07:13:11;7.60;1.00
14401;DHT22;7285;50.894;5.462;2023-04-24T07:15:38;7.60;1.00
14401;DHT22;7285;50.894;5.462;2023-04-24T07:18:06;7.60;1.00
14401;DHT22;7285;50.894;5.462;2023-04-24T07:20:33;7.70;1.00
14401;DHT22;7285;50.894;5.462;2023-04-24T07:23:00;7.70;1.00
14401;DHT22;7285;50.894;5.462;2023-04-24T07:25:28;7.80;1.00
14401;DHT22;7285;50.894;5.462;2023-04-24T07:27:57;7.80;1.00
14401;DHT22;7285;50.894;5.462;2023-04-24T07:30:24;7.90;1.00
14401;DHT22;7285;50.894;5.462;2023-04-24T07:32:51;7.90;1.00
14401;DHT22;7285;50.894;5.462;2023-04-24T07:35:18;8.00;3.40
14401;DHT22;7285;50.894;5.462;2023-04-24T07:37:45;8.00;8.80
14401;DHT22;7285;50.894;5.462;2023-04-24T07:40:12;8.00;23.00
14401;DHT22;7285;50.894;5.462;2023-04-24T07:42:41;8.00;33.30
14401;DHT22;7285;50.894;5.462;2023-04-24T07:45:09;8.10;66.20
14401;DHT22;7285;50.894;5.462;2023-04-24T07:47:36;8.10;82.90
14401;DHT22;7285;50.894;5.462;2023-04-24T07:50:06;8.20;93.10
14401;DHT22;7285;50.894;5.462;2023-04-24T07:52:33;8.10;65.00
14401;DHT22;7285;50.894;5.462;2023-04-24T07:55:00;8.10;69.20
14401;DHT22;7285;50.894;5.462;2023-04-24T07:57:27;8.20;74.80
14401;DHT22;7285;50.894;5.462;2023-04-24T07:59:56;8.20;85.90
14401;DHT22;7285;50.894;5.462;2023-04-24T08:02:22;8.20;88.90
14401;DHT22;7285;50.894;5.462;2023-04-24T08:04:52;8.10;76.70
14401;DHT22;7285;50.894;5.462;2023-04-24T08:07:19;8.10;85.70
14401;DHT22;7285;50.894;5.462;2023-04-24T08:09:46;8.00;90.60
14401;DHT22;7285;50.894;5.462;2023-04-24T08:12:13;8.00;95.50
14401;DHT22;7285;50.894;5.462;2023-04-24T08:14:40;8.10;99.90
14401;DHT22;7285;50.894;5.462;2023-04-24T08:17:09;8.10;99.90
14401;DHT22;7285;50.894;5.462;2023-04-24T08:19:36;8.10;99.90
14401;DHT22;7285;50.894;5.462;2023-04-24T08:22:03;8.10;99.90
14401;DHT22;7285;50.894;5.462;2023-04-24T08:24:30;8.10;99.90
14401;DHT22;7285;50.894;5.462;2023-04-24T08:26:57;8.10;99.90
14401;DHT22;7285;50.894;5.462;2023-04-24T08:29:24;8.10;99.90
14401;DHT22;7285;50.894;5.462;2023-04-24T08:31:52;8.20;99.90
14401;DHT22;7285;50.894;5.462;2023-04-24T08:34:22;8.20;99.90
14401;DHT22;7285;50.894;5.462;2023-04-24T08:36:49;8.20;98.20
14401;DHT22;7285;50.894;5.462;2023-04-24T08:39:17;8.30;91.50
14401;DHT22;7285;50.894;5.462;2023-04-24T08:41:45;8.30;92.10
14401;DHT22;7285;50.894;5.462;2023-04-24T08:44:12;8.40;90.70
14401;DHT22;7285;50.894;5.462;2023-04-24T08:46:43;8.40;55.90
14401;DHT22;7285;50.894;5.462;2023-04-24T08:49:11;8.60;73.20
14401;DHT22;7285;50.894;5.462;2023-04-24T08:51:40;8.70;59.50
14401;DHT22;7285;50.894;5.462;2023-04-24T08:54:07;8.80;1.00
14401;DHT22;7285;50.894;5.462;2023-04-24T08:56:36;9.10;20.10
14401;DHT22;7285;50.894;5.462;2023-04-24T08:59:05;9.10;1.00
14401;DHT22;7285;50.894;5.462;2023-04-24T09:01:33;9.20;1.00
14401;DHT22;7285;50.894;5.462;2023-04-24T09:04:02;9.30;1.00
14401;DHT22;7285;50.894;5.462;2023-04-24T09:06:30;9.20;1.00
14401;DHT22;7285;50.894;5.462;2023-04-24T09:09:01;9.20;1.00
14401;DHT22;7285;50.894;5.462;2023-04-24T09:11:30;9.10;1.00
14401;DHT22;7285;50.894;5.462;2023-04-24T09:13:57;9.00;1.00
14401;DHT22;7285;50.894;5.462;2023-04-24T09:16:25;8.90;1.00
14401;DHT22;7285;50.894;5.462;2023-04-24T09:18:52;8.80;1.00
14401;DHT22;7285;50.894;5.462;2023-04-24T09:21:21;8.70;1.00
14401;DHT22;7285;50.894;5.462;2023-04-24T09:23:58;8.80;1.00
14401;DHT22;7285;50.894;5.462;2023-04-24T09:26:29;8.70;1.00
14401;DHT22;7285;50.894;5.462;2023-04-24T09:28:58;8.70;1.00
14401;DHT22;7285;50.894;5.462;2023-04-24T09:31:28;8.80;99.90
14401;DHT22;7285;50.894;5.462;2023-04-24T09:33:57;8.90;99.90
14401;DHT22;7285;50.894;5.462;2023-04-24T09:36:28;8.80;99.90
14401;DHT22;7285;50.894;5.462;2023-04-24T09:38:58;9.00;99.90
14401;DHT22;7285;50.894;5.462;2023-04-24T09:41:27;9.40;1.00
14401;DHT22;7285;50.894;5.462;2023-04-24T09:43:55;9.70;99.90
14401;DHT22;7285;50.894;5.462;2023-04-24T09:46:30;10.10;99.90
14401;DHT22;7285;50.894;5.462;2023-04-24T09:48:57;10.30;99.90
14401;DHT22;7285;50.894;5.462;2023-04-24T09:51:34;10.10;99.90
14401;DHT22;7285;50.894;5.462;2023-04-24T09:54:02;10.10;99.90
14401;DHT22;7285;50.894;5.462;2023-04-24T09:56:33;10.30;31.60
14401;DHT22;7285;50.894;5.462;2023-04-24T09:59:06;10.40;1.00
14401;DHT22;7285;50.894;5.462;2023-04-24T10:01:34;10.40;1.00
14401;DHT22;7285;50.894;5.462;2023-04-24T10:04:01;10.80;1.00
14401;DHT22;7285;50.894;5.462;2023-04-24T10:06:33;11.00;99.90
14401;DHT22;7285;50.894;5.462;2023-04-24T10:09:01;11.40;1.00
14401;DHT22;7285;50.894;5.462;2023-04-24T10:11:30;11.50;30.20
14401;DHT22;7285;50.894;5.462;2023-04-24T10:13:57;11.20;99.90
14401;DHT22;7285;50.894;5.462;2023-04-24T10:16:25;11.10;1.00
14401;DHT22;7285;50.894;5.462;2023-04-24T10:18:54;11.10;99.90
14401;DHT22;7285;50.894;5.462;2023-04-24T10:21:22;10.80;99.90
14401;DHT22;7285;50.894;5.462;2023-04-24T10:23:50;10.70;1.00
14401;DHT22;7285;50.894;5.462;2023-04-24T10:26:17;10.80;1.00
14401;DHT22;7285;50.894;5.462;2023-04-24T10:28:47;11.60;99.90
14401;DHT22;7285;50.894;5.462;2023-04-24T10:31:14;12.00;1.00
14401;DHT22;7285;50.894;5.462;2023-04-24T10:33:43;11.80;1.00
14401;DHT22;7285;50.894;5.462;2023-04-24T10:36:10;11.30;99.90
14401;DHT22;7285;50.894;5.462;2023-04-24T10:38:39;11.20;99.90
14401;DHT22;7285;50.894;5.462;2023-04-24T10:41:08;11.10;1.00
14401;DHT22;7285;50.894;5.462;2023-04-24T10:43:40;11.30;99.90
14401;DHT22;7285;50.894;5.462;2023-04-24T10:46:08;11.30;1.00
14401;DHT22;7285;50.894;5.462;2023-04-24T10:48:42;11.50;1.00
14401;DHT22;7285;50.894;5.462;2023-04-24T10:51:11;11.40;1.00
14401;DHT22;7285;50.894;5.462;2023-04-24T10:53:39;11.30;1.00
14401;DHT22;7285;50.894;5.462;2023-04-24T10:56:07;11.20;1.00
14401;DHT22;7285;50.894;5.462;2023-04-24T10:58:40;11.20;99.90
14401;DHT22;7285;50.894;5.462;2023-04-24T11:01:23;11.30;99.90
14401;DHT22;7285;50.894;5.462;2023-04-24T11:03:54;11.30;99.90
14401;DHT22;7285;50.894;5.462;2023-04-24T11:06:29;11.30;79.70
14401;DHT22;7285;50.894;5.462;2023-04-24T11:09:02;11.30;99.90
14401;DHT22;7285;50.894;5.462;2023-04-24T11:11:31;11.30;1.00
14401;DHT22;7285;50.894;5.462;2023-04-24T11:14:08;11.30;1.00
14401;DHT22;7285;50.894;5.462;2023-04-24T11:16:39;11.40;1.00
14401;DHT22;7285;50.894;5.462;2023-04-24T11:19:18;11.50;68.10
14401;DHT22;7285;50.894;5.462;2023-04-24T11:21:46;11.50;1.00
14401;DHT22;7285;50.894;5.462;2023-04-24T11:24:30;11.40;1.00
14401;DHT22;7285;50.894;5.462;2023-04-24T11:26:59;11.50;1.00
14401;DHT22;7285;50.894;5.462;2023-04-24T11:29:46;11.30;1.00
14401;DHT22;7285;50.894;5.462;2023-04-24T11:32:28;11.30;99.90
14401;DHT22;7285;50.894;5.462;2023-04-24T11:34:57;11.40;99.90
14401;DHT22;7285;50.894;5.462;2023-04-24T11:37:26;11.50;1.00
14401;DHT22;7285;50.894;5.462;2023-04-24T11:39:58;11.80;3.90
14401;DHT22;7285;50.894;5.462;2023-04-24T11:42:35;11.90;1.00
14401;DHT22;7285;50.894;5.462;2023-04-24T11:45:07;11.90;1.00
14401;DHT22;7285;50.894;5.462;2023-04-24T11:47:36;11.90;1.00
14401;DHT22;7285;50.894;5.462;2023-04-24T11:50:05;11.90;1.00
14401;DHT22;7285;50.894;5.462;2023-04-24T11:52:33;12.10;1.00
14401;DHT22;7285;50.894;5.462;2023-04-24T11:55:03;12.20;1.00
14401;DHT22;7285;50.894;5.462;2023-04-24T11:57:30;12.20;1.00
14401;DHT22;7285;50.894;5.462;2023-04-24T12:00:00;12.30;1.00
14401;DHT22;7285;50.894;5.462;2023-04-24T12:02:28;12.40;1.00
14401;DHT22;7285;50.894;5.462;2023-04-24T12:04:56;12.50;1.00
14401;DHT22;7285;50.894;5.462;2023-04-24T12:07:23;12.60;1.00
14401;DHT22;7285;50.894;5.462;2023-04-24T12:09:56;12.50;1.00
14401;DHT22;7285;50.894;5.462;2023-04-24T12:12:25;12.60;1.00
14401;DHT22;7285;50.894;5.462;2023-04-24T12:14:54;12.50;99.90
14401;DHT22;7285;50.894;5.462;2023-04-24T12:17:28;12.30;99.90
14401;DHT22;7285;50.894;5.462;2023-04-24T12:20:01;12.20;99.90
14401;DHT22;7285;50.894;5.462;2023-04-24T12:22:42;12.30;99.90
14401;DHT22;7285;50.894;5.462;2023-04-24T12:25:10;12.40;99.90
14401;DHT22;7285;50.894;5.462;2023-04-24T12:27:37;12.30;99.90
14401;DHT22;7285;50.894;5.462;2023-04-24T12:30:09;12.00;99.90
14401;DHT22;7285;50.894;5.462;2023-04-24T12:32:41;12.00;99.90
14401;DHT22;7285;50.894;5.462;2023-04-24T12:35:09;12.00;99.90
14401;DHT22;7285;50.894;5.462;2023-04-24T12:37:36;11.90;99.90
14401;DHT22;7285;50.894;5.462;2023-04-24T12:40:07;11.80;99.90
14401;DHT22;7285;50.894;5.462;2023-04-24T12:42:42;11.90;99.90
14401;DHT22;7285;50.894;5.462;2023-04-24T12:45:09;12.10;99.90
14401;DHT22;7285;50.894;5.462;2023-04-24T12:47:40;12.30;99.90
14401;DHT22;7285;50.894;5.462;2023-04-24T12:50:10;12.60;99.90
14401;DHT22;7285;50.894;5.462;2023-04-24T12:52:38;12.90;99.90
14401;DHT22;7285;50.894;5.462;2023-04-24T12:55:06;12.80;99.90
14401;DHT22;7285;50.894;5.462;2023-04-24T12:57:35;12.60;85.70
14401;DHT22;7285;50.894;5.462;2023-04-24T13:00:04;12.50;46.40
14401;DHT22;7285;50.894;5.462;2023-04-24T13:02:31;12.60;99.90
14401;DHT22;7285;50.894;5.462;2023-04-24T13:04:58;12.50;99.90
14401;DHT22;7285;50.894;5.462;2023-04-24T13:07:27;12.50;99.90
14401;DHT22;7285;50.894;5.462;2023-04-24T13:09:56;12.40;91.80
14401;DHT22;7285;50.894;5.462;2023-04-24T13:12:23;12.40;24.10
14401;DHT22;7285;50.894;5.462;2023-04-24T13:14:51;12.50;39.10
14401;DHT22;7285;50.894;5.462;2023-04-24T13:17:17;12.90;1.00
14401;DHT22;7285;50.894;5.462;2023-04-24T13:19:44;13.60;1.00
14401;DHT22;7285;50.894;5.462;2023-04-24T13:22:12;13.70;1.00
14401;DHT22;7285;50.894;5.462;2023-04-24T13:24:41;14.10;9.50
14401;DHT22;7285;50.894;5.462;2023-04-24T13:27:08;13.90;1.00
14401;DHT22;7285;50.894;5.462;2023-04-24T13:29:35;14.10;12.60
14401;DHT22;7285;50.894;5.462;2023-04-24T13:32:02;14.50;1.80
14401;DHT22;7285;50.894;5.462;2023-04-24T13:34:30;14.40;1.00
14401;DHT22;7285;50.894;5.462;2023-04-24T13:36:57;14.10;1.00
14401;DHT22;7285;50.894;5.462;2023-04-24T13:39:25;13.80;1.00
14401;DHT22;7285;50.894;5.462;2023-04-24T13:41:55;13.50;1.00
14401;DHT22;7285;50.894;5.462;2023-04-24T13:44:22;13.30;1.00
14401;DHT22;7285;50.894;5.462;2023-04-24T13:46:51;13.20;1.00
14401;DHT22;7285;50.894;5.462;2023-04-24T13:49:19;13.20;1.00
14401;DHT22;7285;50.894;5.462;2023-04-24T13:51:46;13.90;1.00
14401;DHT22;7285;50.894;5.462;2023-04-24T13:54:14;14.50;1.00
14401;DHT22;7285;50.894;5.462;2023-04-24T13:56:41;14.80;1.00
14401;DHT22;7285;50.894;5.462;2023-04-24T13:59:12;15.10;1.00
14401;DHT22;7285;50.894;5.462;2023-04-24T14:01:39;15.70;1.00
14401;DHT22;7285;50.894;5.462;2023-04-24T14:04:06;15.60;1.00
14401;DHT22;7285;50.894;5.462;2023-04-24T14:06:33;15.90;1.00
14401;DHT22;7285;50.894;5.462;2023-04-24T14:09:00;16.00;1.00
14401;DHT22;7285;50.894;5.462;2023-04-24T14:11:27;15.30;1.00
14401;DHT22;7285;50.894;5.462;2023-04-24T14:13:54;15.20;1.00
14401;DHT22;7285;50.894;5.462;2023-04-24T14:16:24;14.60;1.00
14401;DHT22;7285;50.894;5.462;2023-04-24T14:18:51;14.50;1.00
14401;DHT22;7285;50.894;5.462;2023-04-24T14:21:18;14.20;1.00
14401;DHT22;7285;50.894;5.462;2023-04-24T14:23:45;14.20;1.00
14401;DHT22;7285;50.894;5.462;2023-04-24T14:26:12;14.20;1.00
14401;DHT22;7285;50.894;5.462;2023-04-24T14:28:39;14.60;1.00
14401;DHT22;7285;50.894;5.462;2023-04-24T14:31:06;14.60;1.00
14401;DHT22;7285;50.894;5.462;2023-04-24T14:33:35;15.30;1.00
14401;DHT22;7285;50.894;5.462;2023-04-24T14:36:01;15.30;1.00
14401;DHT22;7285;50.894;5.462;2023-04-24T14:38:31;14.60;1.00
14401;DHT22;7285;50.894;5.462;2023-04-24T14:40:58;14.40;1.00
14401;DHT22;7285;50.894;5.462;2023-04-24T14:43:24;14.60;1.00
14401;DHT22;7285;50.894;5.462;2023-04-24T14:45:51;14.90;1.00
14401;DHT22;7285;50.894;5.462;2023-04-24T14:48:18;15.60;1.00
14401;DHT22;7285;50.894;5.462;2023-04-24T14:50:47;15.50;1.00
14401;DHT22;7285;50.894;5.462;2023-04-24T14:53:14;15.70;1.00
14401;DHT22;7285;50.894;5.462;2023-04-24T14:55:41;15.20;1.00
14401;DHT22;7285;50.894;5.462;2023-04-24T14:58:08;14.70;1.00
14401;DHT22;7285;50.894;5.462;2023-04-24T15:00:35;14.50;1.00
14401;DHT22;7285;50.894;5.462;2023-04-24T15:03:03;14.30;1.00
14401;DHT22;7285;50.894;5.462;2023-04-24T15:05:30;14.20;1.00
14401;DHT22;7285;50.894;5.462;2023-04-24T15:07:58;13.80;1.00
14401;DHT22;7285;50.894;5.462;2023-04-24T15:10:25;13.70;1.00
14401;DHT22;7285;50.894;5.462;2023-04-24T15:12:52;13.70;1.00
14401;DHT22;7285;50.894;5.462;2023-04-24T15:15:19;13.60;1.00
14401;DHT22;7285;50.894;5.462;2023-04-24T15:17:46;13.40;1.00
14401;DHT22;7285;50.894;5.462;2023-04-24T15:20:13;13.70;1.00
14401;DHT22;7285;50.894;5.462;2023-04-24T15:22:40;13.70;1.00
14401;DHT22;7285;50.894;5.462;2023-04-24T15:25:09;13.60;1.00
14401;DHT22;7285;50.894;5.462;2023-04-24T15:27:40;13.60;1.00
14401;DHT22;7285;50.894;5.462;2023-04-24T15:30:08;13.50;1.00
14401;DHT22;7285;50.894;5.462;2023-04-24T15:32:36;13.50;1.00
14401;DHT22;7285;50.894;5.462;2023-04-24T15:35:03;13.40;1.00
14401;DHT22;7285;50.894;5.462;2023-04-24T15:37:30;13.40;1.00
14401;DHT22;7285;50.894;5.462;2023-04-24T15:39:57;13.30;1.00
14401;DHT22;7285;50.894;5.462;2023-04-24T15:42:26;13.90;1.00
14401;DHT22;7285;50.894;5.462;2023-04-24T15:44:53;14.10;1.00
14401;DHT22;7285;50.894;5.462;2023-04-24T15:47:20;14.10;1.00
14401;DHT22;7285;50.894;5.462;2023-04-24T15:49:47;14.10;1.00
14401;DHT22;7285;50.894;5.462;2023-04-24T15:52:14;13.80;1.00
14401;DHT22;7285;50.894;5.462;2023-04-24T15:54:41;13.80;1.00
14401;DHT22;7285;50.894;5.462;2023-04-24T15:57:08;13.70;1.00
14401;DHT22;7285;50.894;5.462;2023-04-24T15:59:36;13.50;1.00
14401;DHT22;7285;50.894;5.462;2023-04-24T16:02:03;13.10;1.00
14401;DHT22;7285;50.894;5.462;2023-04-24T16:04:32;13.00;1.00
14401;DHT22;7285;50.894;5.462;2023-04-24T16:07:00;12.90;1.00
14401;DHT22;7285;50.894;5.462;2023-04-24T16:09:27;12.80;1.00